sensor_id;sensor_type;location;lat;lon;timestamp;P1;durP1;ratioP1;P2;durP2;ratioP2
7529;SDS011;3806;52.270;10.544;2022-07-01T00:01:36;10.98;;;7.78;;
7529;SDS011;3806;52.270;10.544;2022-07-01T00:04:02;9.63;;;7.10;;
7529;SDS011;3806;52.270;10.544;2022-07-01T00:06:28;13.52;;;7.43;;
7529;SDS011;3806;52.270;10.544;2022-07-01T00:08:54;12.50;;;7.07;;
7529;SDS011;3806;52.270;10.544;2022-07-01T00:11:20;12.02;;;6.72;;
7529;SDS011;3806;52.270;10.544;2022-07-01T00:13:46;9.57;;;6.32;;
7529;SDS011;3806;52.270;10.544;2022-07-01T00:16:11;11.45;;;6.10;;
7529;SDS011;3806;52.270;10.544;2022-07-01T00:18:37;9.32;;;6.47;;
7529;SDS011;3806;52.270;10.544;2022-07-01T00:21:03;11.07;;;5.55;;
7529;SDS011;3806;52.270;10.544;2022-07-01T00:23:28;9.23;;;5.40;;
7529;SDS011;3806;52.270;10.544;2022-07-01T00:25:54;7.82;;;4.95;;
7529;SDS011;3806;52.270;10.544;2022-07-01T00:28:20;8.85;;;5.30;;
7529;SDS011;3806;52.270;10.544;2022-07-01T00:30:46;7.78;;;4.75;;
7529;SDS011;3806;52.270;10.544;2022-07-01T00:33:11;6.97;;;4.47;;
7529;SDS011;3806;52.270;10.544;2022-07-01T00:35:37;6.55;;;5.07;;
7529;SDS011;3806;52.270;10.544;2022-07-01T00:38:03;7.38;;;4.28;;
7529;SDS011;3806;52.270;10.544;2022-07-01T00:40:29;5.78;;;4.57;;
7529;SDS011;3806;52.270;10.544;2022-07-01T00:42:55;8.38;;;4.63;;
7529;SDS011;3806;52.270;10.544;2022-07-01T00:45:20;8.05;;;4.15;;
7529;SDS011;3806;52.270;10.544;2022-07-01T00:47:46;7.38;;;4.20;;
7529;SDS011;3806;52.270;10.544;2022-07-01T00:50:13;8.25;;;3.95;;
7529;SDS011;3806;52.270;10.544;2022-07-01T00:52:40;6.00;;;4.05;;
7529;SDS011;3806;52.270;10.544;2022-07-01T00:55:07;5.15;;;3.90;;
7529;SDS011;3806;52.270;10.544;2022-07-01T00:57:35;7.10;;;4.22;;
7529;SDS011;3806;52.270;10.544;2022-07-01T01:02:34;7.78;;;4.10;;
7529;SDS011;3806;52.270;10.544;2022-07-01T01:05:00;4.63;;;3.75;;
7529;SDS011;3806;52.270;10.544;2022-07-01T01:07:27;5.35;;;3.65;;
7529;SDS011;3806;52.270;10.544;2022-07-01T01:09:53;5.22;;;3.55;;
7529;SDS011;3806;52.270;10.544;2022-07-01T01:12:19;7.90;;;3.80;;
7529;SDS011;3806;52.270;10.544;2022-07-01T01:14:45;6.53;;;3.80;;
7529;SDS011;3806;52.270;10.544;2022-07-01T01:17:13;5.45;;;3.65;;
7529;SDS011;3806;52.270;10.544;2022-07-01T01:19:39;9.43;;;3.97;;
7529;SDS011;3806;52.270;10.544;2022-07-01T01:22:05;5.43;;;3.67;;
7529;SDS011;3806;52.270;10.544;2022-07-01T01:24:31;6.57;;;3.33;;
7529;SDS011;3806;52.270;10.544;2022-07-01T01:26:57;6.80;;;4.10;;
7529;SDS011;3806;52.270;10.544;2022-07-01T01:29:23;4.90;;;3.65;;
7529;SDS011;3806;52.270;10.544;2022-07-01T01:31:48;6.68;;;3.95;;
7529;SDS011;3806;52.270;10.544;2022-07-01T01:34:14;6.80;;;3.97;;
7529;SDS011;3806;52.270;10.544;2022-07-01T01:36:39;6.88;;;3.45;;
7529;SDS011;3806;52.270;10.544;2022-07-01T01:39:05;5.53;;;3.33;;
7529;SDS011;3806;52.270;10.544;2022-07-01T01:41:39;10.85;;;3.65;;
7529;SDS011;3806;52.270;10.544;2022-07-01T01:44:05;4.65;;;3.33;;
7529;SDS011;3806;52.270;10.544;2022-07-01T01:46:30;4.72;;;3.47;;
7529;SDS011;3806;52.270;10.544;2022-07-01T01:48:57;6.53;;;3.85;;
7529;SDS011;3806;52.270;10.544;2022-07-01T01:51:23;7.70;;;3.65;;
7529;SDS011;3806;52.270;10.544;2022-07-01T01:53:48;5.65;;;3.70;;
7529;SDS011;3806;52.270;10.544;2022-07-01T01:56:14;5.47;;;3.95;;
7529;SDS011;3806;52.270;10.544;2022-07-01T01:58:40;6.38;;;3.17;;
7529;SDS011;3806;52.270;10.544;2022-07-01T02:01:09;5.55;;;3.85;;
7529;SDS011;3806;52.270;10.544;2022-07-01T02:03:36;4.50;;;3.00;;
7529;SDS011;3806;52.270;10.544;2022-07-01T02:06:03;4.65;;;3.60;;
7529;SDS011;3806;52.270;10.544;2022-07-01T02:08:29;7.45;;;3.40;;
7529;SDS011;3806;52.270;10.544;2022-07-01T02:10:55;6.35;;;3.42;;
7529;SDS011;3806;52.270;10.544;2022-07-01T02:13:21;5.38;;;3.22;;
7529;SDS011;3806;52.270;10.544;2022-07-01T02:15:46;5.15;;;3.40;;
7529;SDS011;3806;52.270;10.544;2022-07-01T02:18:14;4.47;;;3.33;;
7529;SDS011;3806;52.270;10.544;2022-07-01T02:20:40;8.20;;;3.70;;
7529;SDS011;3806;52.270;10.544;2022-07-01T02:23:06;4.78;;;2.75;;
7529;SDS011;3806;52.270;10.544;2022-07-01T02:25:32;6.60;;;3.60;;
7529;SDS011;3806;52.270;10.544;2022-07-01T02:27:58;5.30;;;2.88;;
7529;SDS011;3806;52.270;10.544;2022-07-01T02:30:24;5.93;;;3.58;;
7529;SDS011;3806;52.270;10.544;2022-07-01T02:32:50;5.75;;;3.72;;
7529;SDS011;3806;52.270;10.544;2022-07-01T02:35:16;6.15;;;4.15;;
7529;SDS011;3806;52.270;10.544;2022-07-01T02:37:41;6.32;;;3.75;;
7529;SDS011;3806;52.270;10.544;2022-07-01T02:40:08;8.25;;;4.80;;
7529;SDS011;3806;52.270;10.544;2022-07-01T02:42:34;6.20;;;3.60;;
7529;SDS011;3806;52.270;10.544;2022-07-01T02:45:01;10.27;;;4.03;;
7529;SDS011;3806;52.270;10.544;2022-07-01T02:47:46;7.55;;;3.83;;
7529;SDS011;3806;52.270;10.544;2022-07-01T02:50:15;5.40;;;4.28;;
7529;SDS011;3806;52.270;10.544;2022-07-01T02:52:43;11.82;;;5.13;;
7529;SDS011;3806;52.270;10.544;2022-07-01T02:55:10;8.80;;;4.30;;
7529;SDS011;3806;52.270;10.544;2022-07-01T02:57:36;11.02;;;4.38;;
7529;SDS011;3806;52.270;10.544;2022-07-01T03:00:03;7.32;;;4.15;;
7529;SDS011;3806;52.270;10.544;2022-07-01T03:02:30;6.00;;;3.70;;
7529;SDS011;3806;52.270;10.544;2022-07-01T03:04:56;6.38;;;4.15;;
7529;SDS011;3806;52.270;10.544;2022-07-01T03:07:22;5.93;;;4.05;;
7529;SDS011;3806;52.270;10.544;2022-07-01T03:09:47;6.75;;;4.45;;
7529;SDS011;3806;52.270;10.544;2022-07-01T03:12:13;5.53;;;4.05;;
7529;SDS011;3806;52.270;10.544;2022-07-01T03:14:55;7.88;;;4.88;;
7529;SDS011;3806;52.270;10.544;2022-07-01T03:17:29;6.50;;;3.53;;
7529;SDS011;3806;52.270;10.544;2022-07-01T03:19:56;8.15;;;3.40;;
7529;SDS011;3806;52.270;10.544;2022-07-01T03:22:24;5.28;;;3.22;;
7529;SDS011;3806;52.270;10.544;2022-07-01T03:24:51;5.55;;;3.13;;
7529;SDS011;3806;52.270;10.544;2022-07-01T03:27:17;4.45;;;2.88;;
7529;SDS011;3806;52.270;10.544;2022-07-01T03:29:44;3.97;;;2.67;;
7529;SDS011;3806;52.270;10.544;2022-07-01T03:32:10;5.15;;;2.85;;
7529;SDS011;3806;52.270;10.544;2022-07-01T03:34:37;4.07;;;2.67;;
7529;SDS011;3806;52.270;10.544;2022-07-01T03:37:03;3.97;;;2.50;;
7529;SDS011;3806;52.270;10.544;2022-07-01T03:39:30;3.13;;;2.00;;
7529;SDS011;3806;52.270;10.544;2022-07-01T03:41:56;3.80;;;2.67;;
7529;SDS011;3806;52.270;10.544;2022-07-01T03:44:21;3.38;;;2.60;;
7529;SDS011;3806;52.270;10.544;2022-07-01T03:46:47;4.53;;;2.50;;
7529;SDS011;3806;52.270;10.544;2022-07-01T03:49:12;4.40;;;2.95;;
7529;SDS011;3806;52.270;10.544;2022-07-01T03:51:38;4.45;;;2.10;;
7529;SDS011;3806;52.270;10.544;2022-07-01T03:54:04;2.70;;;1.70;;
7529;SDS011;3806;52.270;10.544;2022-07-01T03:56:48;2.33;;;1.35;;
7529;SDS011;3806;52.270;10.544;2022-07-01T03:59:13;1.33;;;1.08;;
7529;SDS011;3806;52.270;10.544;2022-07-01T04:01:39;2.58;;;0.90;;
7529;SDS011;3806;52.270;10.544;2022-07-01T04:04:05;1.27;;;1.10;;
7529;SDS011;3806;52.270;10.544;2022-07-01T04:06:30;1.45;;;0.85;;
7529;SDS011;3806;52.270;10.544;2022-07-01T04:08:56;2.55;;;1.10;;
7529;SDS011;3806;52.270;10.544;2022-07-01T04:11:22;1.50;;;0.90;;
7529;SDS011;3806;52.270;10.544;2022-07-01T04:13:48;1.27;;;1.00;;
7529;SDS011;3806;52.270;10.544;2022-07-01T04:16:17;1.83;;;1.35;;
7529;SDS011;3806;52.270;10.544;2022-07-01T04:18:43;3.17;;;1.40;;
7529;SDS011;3806;52.270;10.544;2022-07-01T04:21:09;2.75;;;1.88;;
7529;SDS011;3806;52.270;10.544;2022-07-01T04:23:53;4.50;;;1.58;;
7529;SDS011;3806;52.270;10.544;2022-07-01T04:26:20;1.98;;;1.30;;
7529;SDS011;3806;52.270;10.544;2022-07-01T04:28:45;2.38;;;1.65;;
7529;SDS011;3806;52.270;10.544;2022-07-01T04:31:11;3.88;;;1.50;;
7529;SDS011;3806;52.270;10.544;2022-07-01T04:33:37;3.85;;;1.70;;
7529;SDS011;3806;52.270;10.544;2022-07-01T04:36:02;7.13;;;2.20;;
7529;SDS011;3806;52.270;10.544;2022-07-01T04:38:28;4.05;;;2.00;;
7529;SDS011;3806;52.270;10.544;2022-07-01T04:40:54;5.82;;;2.75;;
7529;SDS011;3806;52.270;10.544;2022-07-01T04:43:38;5.13;;;2.20;;
7529;SDS011;3806;52.270;10.544;2022-07-01T04:46:04;2.70;;;1.95;;
7529;SDS011;3806;52.270;10.544;2022-07-01T04:48:30;3.97;;;2.00;;
7529;SDS011;3806;52.270;10.544;2022-07-01T04:50:55;3.67;;;2.25;;
7529;SDS011;3806;52.270;10.544;2022-07-01T04:53:21;4.57;;;2.40;;
7529;SDS011;3806;52.270;10.544;2022-07-01T04:55:46;5.25;;;2.20;;
7529;SDS011;3806;52.270;10.544;2022-07-01T04:58:12;4.25;;;2.20;;
7529;SDS011;3806;52.270;10.544;2022-07-01T05:00:38;2.78;;;2.35;;
7529;SDS011;3806;52.270;10.544;2022-07-01T05:03:03;2.85;;;2.15;;
7529;SDS011;3806;52.270;10.544;2022-07-01T05:05:29;3.72;;;1.90;;
7529;SDS011;3806;52.270;10.544;2022-07-01T05:07:55;2.25;;;1.58;;
7529;SDS011;3806;52.270;10.544;2022-07-01T05:10:20;2.42;;;1.70;;
7529;SDS011;3806;52.270;10.544;2022-07-01T05:12:46;2.55;;;1.40;;
7529;SDS011;3806;52.270;10.544;2022-07-01T05:15:12;2.30;;;1.58;;
7529;SDS011;3806;52.270;10.544;2022-07-01T05:17:37;2.63;;;1.58;;
7529;SDS011;3806;52.270;10.544;2022-07-01T05:20:22;1.50;;;1.30;;
7529;SDS011;3806;52.270;10.544;2022-07-01T05:23:06;3.55;;;1.50;;
7529;SDS011;3806;52.270;10.544;2022-07-01T05:25:31;1.25;;;1.10;;
7529;SDS011;3806;52.270;10.544;2022-07-01T05:27:57;3.88;;;1.60;;
7529;SDS011;3806;52.270;10.544;2022-07-01T05:30:22;1.85;;;1.40;;
7529;SDS011;3806;52.270;10.544;2022-07-01T05:32:48;1.60;;;1.30;;
7529;SDS011;3806;52.270;10.544;2022-07-01T05:35:13;2.17;;;1.30;;
7529;SDS011;3806;52.270;10.544;2022-07-01T05:37:40;2.97;;;1.30;;
7529;SDS011;3806;52.270;10.544;2022-07-01T05:40:06;1.70;;;1.10;;
7529;SDS011;3806;52.270;10.544;2022-07-01T05:42:32;1.73;;;1.20;;
7529;SDS011;3806;52.270;10.544;2022-07-01T05:44:58;2.25;;;1.33;;
7529;SDS011;3806;52.270;10.544;2022-07-01T05:47:23;2.50;;;1.02;;
7529;SDS011;3806;52.270;10.544;2022-07-01T05:49:49;2.95;;;1.52;;
7529;SDS011;3806;52.270;10.544;2022-07-01T05:52:14;3.10;;;1.63;;
7529;SDS011;3806;52.270;10.544;2022-07-01T05:54:40;3.17;;;1.70;;
7529;SDS011;3806;52.270;10.544;2022-07-01T05:57:06;3.88;;;1.60;;
7529;SDS011;3806;52.270;10.544;2022-07-01T05:59:31;2.90;;;1.85;;
7529;SDS011;3806;52.270;10.544;2022-07-01T06:01:57;2.88;;;1.92;;
7529;SDS011;3806;52.270;10.544;2022-07-01T06:04:22;3.95;;;1.70;;
7529;SDS011;3806;52.270;10.544;2022-07-01T06:06:48;2.50;;;1.90;;
7529;SDS011;3806;52.270;10.544;2022-07-01T06:09:14;4.20;;;1.85;;
7529;SDS011;3806;52.270;10.544;2022-07-01T06:11:39;2.22;;;1.45;;
7529;SDS011;3806;52.270;10.544;2022-07-01T06:14:05;2.08;;;1.58;;
7529;SDS011;3806;52.270;10.544;2022-07-01T06:16:30;3.47;;;1.50;;
7529;SDS011;3806;52.270;10.544;2022-07-01T06:18:56;2.08;;;1.45;;
7529;SDS011;3806;52.270;10.544;2022-07-01T06:21:22;2.78;;;1.42;;
7529;SDS011;3806;52.270;10.544;2022-07-01T06:23:47;4.00;;;2.95;;
7529;SDS011;3806;52.270;10.544;2022-07-01T06:26:13;2.58;;;1.80;;
7529;SDS011;3806;52.270;10.544;2022-07-01T06:28:39;1.83;;;1.30;;
7529;SDS011;3806;52.270;10.544;2022-07-01T06:31:05;4.38;;;2.03;;
7529;SDS011;3806;52.270;10.544;2022-07-01T06:33:31;1.90;;;1.40;;
7529;SDS011;3806;52.270;10.544;2022-07-01T06:35:57;2.58;;;1.30;;
7529;SDS011;3806;52.270;10.544;2022-07-01T06:38:23;2.85;;;1.80;;
7529;SDS011;3806;52.270;10.544;2022-07-01T06:40:49;3.15;;;1.45;;
7529;SDS011;3806;52.270;10.544;2022-07-01T06:43:33;2.35;;;1.40;;
7529;SDS011;3806;52.270;10.544;2022-07-01T06:45:59;2.03;;;1.13;;
7529;SDS011;3806;52.270;10.544;2022-07-01T06:48:26;2.00;;;1.38;;
7529;SDS011;3806;52.270;10.544;2022-07-01T06:50:51;2.00;;;1.35;;
7529;SDS011;3806;52.270;10.544;2022-07-01T06:53:17;2.08;;;1.38;;
7529;SDS011;3806;52.270;10.544;2022-07-01T06:55:43;2.28;;;1.52;;
7529;SDS011;3806;52.270;10.544;2022-07-01T06:58:09;2.50;;;1.55;;
7529;SDS011;3806;52.270;10.544;2022-07-01T07:00:36;4.22;;;1.50;;
7529;SDS011;3806;52.270;10.544;2022-07-01T07:03:02;2.67;;;1.83;;
7529;SDS011;3806;52.270;10.544;2022-07-01T07:05:28;2.30;;;1.70;;
7529;SDS011;3806;52.270;10.544;2022-07-01T07:07:57;3.70;;;2.30;;
7529;SDS011;3806;52.270;10.544;2022-07-01T07:10:23;5.07;;;2.40;;
7529;SDS011;3806;52.270;10.544;2022-07-01T07:12:49;3.20;;;2.20;;
7529;SDS011;3806;52.270;10.544;2022-07-01T07:15:15;5.80;;;2.25;;
7529;SDS011;3806;52.270;10.544;2022-07-01T07:17:41;3.80;;;2.65;;
7529;SDS011;3806;52.270;10.544;2022-07-01T07:20:07;3.50;;;2.25;;
7529;SDS011;3806;52.270;10.544;2022-07-01T07:22:33;4.55;;;2.85;;
7529;SDS011;3806;52.270;10.544;2022-07-01T07:25:00;3.53;;;2.30;;
7529;SDS011;3806;52.270;10.544;2022-07-01T07:27:25;2.83;;;2.30;;
7529;SDS011;3806;52.270;10.544;2022-07-01T07:29:51;4.45;;;2.33;;
7529;SDS011;3806;52.270;10.544;2022-07-01T07:32:17;5.97;;;2.80;;
7529;SDS011;3806;52.270;10.544;2022-07-01T07:34:43;5.35;;;2.80;;
7529;SDS011;3806;52.270;10.544;2022-07-01T07:37:09;4.53;;;2.75;;
7529;SDS011;3806;52.270;10.544;2022-07-01T07:39:35;4.30;;;2.72;;
7529;SDS011;3806;52.270;10.544;2022-07-01T07:42:01;4.20;;;2.15;;
7529;SDS011;3806;52.270;10.544;2022-07-01T07:44:43;6.10;;;3.45;;
7529;SDS011;3806;52.270;10.544;2022-07-01T07:47:14;3.88;;;2.80;;
7529;SDS011;3806;52.270;10.544;2022-07-01T07:50:07;8.02;;;2.92;;
7529;SDS011;3806;52.270;10.544;2022-07-01T07:52:44;4.25;;;3.03;;
7529;SDS011;3806;52.270;10.544;2022-07-01T07:55:31;3.67;;;2.60;;
7529;SDS011;3806;52.270;10.544;2022-07-01T07:58:11;5.82;;;3.35;;
7529;SDS011;3806;52.270;10.544;2022-07-01T08:01:16;3.40;;;2.60;;
7529;SDS011;3806;52.270;10.544;2022-07-01T08:04:25;4.15;;;2.60;;
7529;SDS011;3806;52.270;10.544;2022-07-01T08:07:00;5.80;;;2.83;;
7529;SDS011;3806;52.270;10.544;2022-07-01T08:09:46;3.80;;;2.75;;
7529;SDS011;3806;52.270;10.544;2022-07-01T08:12:37;3.95;;;2.40;;
7529;SDS011;3806;52.270;10.544;2022-07-01T08:15:03;5.05;;;2.80;;
7529;SDS011;3806;52.270;10.544;2022-07-01T08:17:29;3.35;;;2.08;;
7529;SDS011;3806;52.270;10.544;2022-07-01T08:20:01;3.58;;;2.47;;
7529;SDS011;3806;52.270;10.544;2022-07-01T08:22:49;2.58;;;1.73;;
7529;SDS011;3806;52.270;10.544;2022-07-01T08:25:17;3.65;;;2.03;;
7529;SDS011;3806;52.270;10.544;2022-07-01T08:27:43;4.47;;;2.10;;
7529;SDS011;3806;52.270;10.544;2022-07-01T08:30:18;2.95;;;2.15;;
7529;SDS011;3806;52.270;10.544;2022-07-01T08:33:03;3.95;;;2.38;;
7529;SDS011;3806;52.270;10.544;2022-07-01T08:35:29;4.13;;;2.60;;
7529;SDS011;3806;52.270;10.544;2022-07-01T08:37:55;2.40;;;2.03;;
7529;SDS011;3806;52.270;10.544;2022-07-01T08:40:23;3.58;;;2.30;;
7529;SDS011;3806;52.270;10.544;2022-07-01T08:42:57;3.10;;;2.20;;
7529;SDS011;3806;52.270;10.544;2022-07-01T08:45:24;3.75;;;2.55;;
7529;SDS011;3806;52.270;10.544;2022-07-01T08:47:51;3.15;;;2.22;;
7529;SDS011;3806;52.270;10.544;2022-07-01T08:50:20;5.20;;;2.70;;
7529;SDS011;3806;52.270;10.544;2022-07-01T08:52:46;3.95;;;2.55;;
7529;SDS011;3806;52.270;10.544;2022-07-01T08:55:12;4.13;;;2.60;;
7529;SDS011;3806;52.270;10.544;2022-07-01T08:57:37;5.63;;;2.53;;
7529;SDS011;3806;52.270;10.544;2022-07-01T09:00:04;5.18;;;2.67;;
7529;SDS011;3806;52.270;10.544;2022-07-01T09:02:50;5.57;;;2.83;;
7529;SDS011;3806;52.270;10.544;2022-07-01T09:05:20;3.97;;;2.45;;
7529;SDS011;3806;52.270;10.544;2022-07-01T09:07:47;4.05;;;2.92;;
7529;SDS011;3806;52.270;10.544;2022-07-01T09:10:17;4.35;;;3.08;;
7529;SDS011;3806;52.270;10.544;2022-07-01T09:12:44;4.65;;;3.33;;
7529;SDS011;3806;52.270;10.544;2022-07-01T09:15:24;5.38;;;2.88;;
7529;SDS011;3806;52.270;10.544;2022-07-01T09:17:56;4.90;;;2.90;;
7529;SDS011;3806;52.270;10.544;2022-07-01T09:20:29;7.38;;;3.30;;
7529;SDS011;3806;52.270;10.544;2022-07-01T09:23:03;6.05;;;3.20;;
7529;SDS011;3806;52.270;10.544;2022-07-01T09:25:35;3.67;;;2.72;;
7529;SDS011;3806;52.270;10.544;2022-07-01T09:28:12;4.43;;;2.95;;
7529;SDS011;3806;52.270;10.544;2022-07-01T09:30:40;4.88;;;3.25;;
7529;SDS011;3806;52.270;10.544;2022-07-01T09:33:08;6.00;;;2.95;;
7529;SDS011;3806;52.270;10.544;2022-07-01T09:35:41;2.03;;;1.75;;
7529;SDS011;3806;52.270;10.544;2022-07-01T09:38:10;4.38;;;2.45;;
7529;SDS011;3806;52.270;10.544;2022-07-01T09:45:50;3.90;;;2.13;;
7529;SDS011;3806;52.270;10.544;2022-07-01T09:48:21;2.72;;;2.17;;
7529;SDS011;3806;52.270;10.544;2022-07-01T09:50:48;3.65;;;2.20;;
7529;SDS011;3806;52.270;10.544;2022-07-01T09:53:14;4.53;;;2.22;;
7529;SDS011;3806;52.270;10.544;2022-07-01T09:55:42;4.35;;;2.42;;
7529;SDS011;3806;52.270;10.544;2022-07-01T09:58:23;3.13;;;2.30;;
7529;SDS011;3806;52.270;10.544;2022-07-01T10:00:49;3.10;;;2.22;;
7529;SDS011;3806;52.270;10.544;2022-07-01T10:04:01;3.78;;;2.60;;
7529;SDS011;3806;52.270;10.544;2022-07-01T10:06:47;3.20;;;2.20;;
7529;SDS011;3806;52.270;10.544;2022-07-01T10:09:47;3.63;;;2.35;;
7529;SDS011;3806;52.270;10.544;2022-07-01T10:15:08;4.10;;;2.78;;
7529;SDS011;3806;52.270;10.544;2022-07-01T10:17:47;4.60;;;3.03;;
7529;SDS011;3806;52.270;10.544;2022-07-01T10:20:32;6.75;;;3.35;;
7529;SDS011;3806;52.270;10.544;2022-07-01T10:23:21;4.28;;;3.25;;
7529;SDS011;3806;52.270;10.544;2022-07-01T10:25:49;10.05;;;3.40;;
7529;SDS011;3806;52.270;10.544;2022-07-01T10:33:28;4.13;;;2.88;;
7529;SDS011;3806;52.270;10.544;2022-07-01T10:41:40;5.00;;;3.00;;
7529;SDS011;3806;52.270;10.544;2022-07-01T10:44:19;4.53;;;2.33;;
7529;SDS011;3806;52.270;10.544;2022-07-01T10:46:53;6.03;;;3.05;;
7529;SDS011;3806;52.270;10.544;2022-07-01T10:52:13;2.58;;;2.33;;
7529;SDS011;3806;52.270;10.544;2022-07-01T10:59:46;4.78;;;2.38;;
7529;SDS011;3806;52.270;10.544;2022-07-01T11:02:17;4.43;;;3.33;;
7529;SDS011;3806;52.270;10.544;2022-07-01T11:05:04;4.55;;;2.75;;
7529;SDS011;3806;52.270;10.544;2022-07-01T11:07:37;2.78;;;2.28;;
7529;SDS011;3806;52.270;10.544;2022-07-01T11:10:05;4.40;;;3.00;;
7529;SDS011;3806;52.270;10.544;2022-07-01T11:12:32;3.53;;;2.50;;
7529;SDS011;3806;52.270;10.544;2022-07-01T11:14:59;4.55;;;2.80;;
7529;SDS011;3806;52.270;10.544;2022-07-01T11:17:30;5.28;;;2.80;;
7529;SDS011;3806;52.270;10.544;2022-07-01T11:19:58;5.80;;;2.90;;
7529;SDS011;3806;52.270;10.544;2022-07-01T11:22:27;7.10;;;3.08;;
7529;SDS011;3806;52.270;10.544;2022-07-01T11:24:58;4.97;;;2.63;;
7529;SDS011;3806;52.270;10.544;2022-07-01T11:27:26;3.72;;;2.20;;
7529;SDS011;3806;52.270;10.544;2022-07-01T11:29:59;4.22;;;2.28;;
7529;SDS011;3806;52.270;10.544;2022-07-01T11:32:35;4.35;;;2.55;;
7529;SDS011;3806;52.270;10.544;2022-07-01T11:35:03;3.65;;;2.65;;
7529;SDS011;3806;52.270;10.544;2022-07-01T11:41:05;3.78;;;2.67;;
7529;SDS011;3806;52.270;10.544;2022-07-01T11:43:42;4.78;;;2.90;;
7529;SDS011;3806;52.270;10.544;2022-07-01T11:46:08;5.00;;;3.08;;
7529;SDS011;3806;52.270;10.544;2022-07-01T11:51:26;3.45;;;2.80;;
7529;SDS011;3806;52.270;10.544;2022-07-01T11:56:31;4.07;;;3.20;;
7529;SDS011;3806;52.270;10.544;2022-07-01T11:58:59;4.32;;;3.17;;
7529;SDS011;3806;52.270;10.544;2022-07-01T12:03:54;5.50;;;3.20;;
7529;SDS011;3806;52.270;10.544;2022-07-01T12:06:21;3.83;;;3.20;;
7529;SDS011;3806;52.270;10.544;2022-07-01T12:08:48;4.25;;;3.33;;
7529;SDS011;3806;52.270;10.544;2022-07-01T12:11:15;7.18;;;3.05;;
7529;SDS011;3806;52.270;10.544;2022-07-01T12:13:43;4.50;;;3.60;;
7529;SDS011;3806;52.270;10.544;2022-07-01T12:16:10;5.22;;;3.58;;
7529;SDS011;3806;52.270;10.544;2022-07-01T12:18:37;5.72;;;3.65;;
7529;SDS011;3806;52.270;10.544;2022-07-01T12:21:03;4.57;;;3.50;;
7529;SDS011;3806;52.270;10.544;2022-07-01T12:23:29;6.32;;;4.20;;
7529;SDS011;3806;52.270;10.544;2022-07-01T12:25:57;7.47;;;4.05;;
7529;SDS011;3806;52.270;10.544;2022-07-01T12:28:56;7.47;;;5.13;;
7529;SDS011;3806;52.270;10.544;2022-07-01T12:31:19;6.05;;;3.85;;
7529;SDS011;3806;52.270;10.544;2022-07-01T12:33:51;5.70;;;4.03;;
7529;SDS011;3806;52.270;10.544;2022-07-01T12:36:17;7.43;;;4.45;;
7529;SDS011;3806;52.270;10.544;2022-07-01T12:38:43;5.22;;;4.28;;
7529;SDS011;3806;52.270;10.544;2022-07-01T12:43:53;6.40;;;4.40;;
7529;SDS011;3806;52.270;10.544;2022-07-01T12:46:29;6.07;;;4.20;;
7529;SDS011;3806;52.270;10.544;2022-07-01T12:48:56;8.18;;;4.28;;
7529;SDS011;3806;52.270;10.544;2022-07-01T12:51:30;5.28;;;4.05;;
7529;SDS011;3806;52.270;10.544;2022-07-01T12:53:59;5.90;;;3.92;;
7529;SDS011;3806;52.270;10.544;2022-07-01T12:56:28;6.40;;;4.20;;
7529;SDS011;3806;52.270;10.544;2022-07-01T12:58:54;6.75;;;4.20;;
7529;SDS011;3806;52.270;10.544;2022-07-01T13:01:21;6.53;;;4.32;;
7529;SDS011;3806;52.270;10.544;2022-07-01T13:03:47;6.22;;;4.43;;
7529;SDS011;3806;52.270;10.544;2022-07-01T13:06:13;7.70;;;5.18;;
7529;SDS011;3806;52.270;10.544;2022-07-01T13:08:39;7.60;;;5.00;;
7529;SDS011;3806;52.270;10.544;2022-07-01T13:11:04;8.20;;;4.45;;
7529;SDS011;3806;52.270;10.544;2022-07-01T13:13:33;7.47;;;4.80;;
7529;SDS011;3806;52.270;10.544;2022-07-01T13:15:59;7.72;;;4.80;;
7529;SDS011;3806;52.270;10.544;2022-07-01T13:18:25;8.45;;;4.72;;
7529;SDS011;3806;52.270;10.544;2022-07-01T13:20:50;6.88;;;4.30;;
7529;SDS011;3806;52.270;10.544;2022-07-01T13:23:16;7.07;;;4.60;;
7529;SDS011;3806;52.270;10.544;2022-07-01T13:25:41;7.30;;;4.63;;
7529;SDS011;3806;52.270;10.544;2022-07-01T13:28:08;7.43;;;4.63;;
7529;SDS011;3806;52.270;10.544;2022-07-01T13:30:34;8.20;;;4.35;;
7529;SDS011;3806;52.270;10.544;2022-07-01T13:33:01;9.40;;;4.95;;
7529;SDS011;3806;52.270;10.544;2022-07-01T13:35:27;10.02;;;4.82;;
7529;SDS011;3806;52.270;10.544;2022-07-01T13:37:53;7.07;;;4.32;;
7529;SDS011;3806;52.270;10.544;2022-07-01T13:40:19;6.55;;;3.97;;
7529;SDS011;3806;52.270;10.544;2022-07-01T13:42:46;5.18;;;3.72;;
7529;SDS011;3806;52.270;10.544;2022-07-01T13:45:12;6.72;;;4.15;;
7529;SDS011;3806;52.270;10.544;2022-07-01T13:47:38;6.50;;;4.13;;
7529;SDS011;3806;52.270;10.544;2022-07-01T13:50:04;6.88;;;4.40;;
7529;SDS011;3806;52.270;10.544;2022-07-01T13:52:30;6.40;;;4.60;;
7529;SDS011;3806;52.270;10.544;2022-07-01T13:54:57;11.98;;;4.35;;
7529;SDS011;3806;52.270;10.544;2022-07-01T13:57:23;5.80;;;3.90;;
7529;SDS011;3806;52.270;10.544;2022-07-01T13:59:49;7.55;;;4.05;;
7529;SDS011;3806;52.270;10.544;2022-07-01T14:02:15;6.78;;;4.10;;
7529;SDS011;3806;52.270;10.544;2022-07-01T14:04:43;5.93;;;4.30;;
7529;SDS011;3806;52.270;10.544;2022-07-01T14:07:09;6.18;;;3.85;;
7529;SDS011;3806;52.270;10.544;2022-07-01T14:09:35;5.75;;;3.80;;
7529;SDS011;3806;52.270;10.544;2022-07-01T14:12:01;6.72;;;3.80;;
7529;SDS011;3806;52.270;10.544;2022-07-01T14:14:27;6.05;;;3.13;;
7529;SDS011;3806;52.270;10.544;2022-07-01T14:16:52;4.15;;;3.10;;
7529;SDS011;3806;52.270;10.544;2022-07-01T14:19:18;3.92;;;3.08;;
7529;SDS011;3806;52.270;10.544;2022-07-01T14:21:44;4.05;;;2.90;;
7529;SDS011;3806;52.270;10.544;2022-07-01T14:24:09;4.38;;;2.65;;
7529;SDS011;3806;52.270;10.544;2022-07-01T14:26:35;3.78;;;2.55;;
7529;SDS011;3806;52.270;10.544;2022-07-01T14:29:00;5.20;;;2.80;;
7529;SDS011;3806;52.270;10.544;2022-07-01T14:31:26;2.95;;;2.20;;
7529;SDS011;3806;52.270;10.544;2022-07-01T14:33:52;3.90;;;2.30;;
7529;SDS011;3806;52.270;10.544;2022-07-01T14:36:20;7.65;;;2.50;;
7529;SDS011;3806;52.270;10.544;2022-07-01T14:38:45;6.80;;;2.38;;
7529;SDS011;3806;52.270;10.544;2022-07-01T14:41:11;3.95;;;2.33;;
7529;SDS011;3806;52.270;10.544;2022-07-01T14:43:37;5.07;;;2.20;;
7529;SDS011;3806;52.270;10.544;2022-07-01T14:46:03;4.78;;;2.72;;
7529;SDS011;3806;52.270;10.544;2022-07-01T14:48:33;2.78;;;2.25;;
7529;SDS011;3806;52.270;10.544;2022-07-01T14:51:00;3.75;;;2.50;;
7529;SDS011;3806;52.270;10.544;2022-07-01T14:53:26;5.40;;;2.45;;
7529;SDS011;3806;52.270;10.544;2022-07-01T14:55:52;6.03;;;2.60;;
7529;SDS011;3806;52.270;10.544;2022-07-01T14:58:17;3.60;;;2.45;;
7529;SDS011;3806;52.270;10.544;2022-07-01T15:00:45;3.20;;;2.50;;
7529;SDS011;3806;52.270;10.544;2022-07-01T15:03:11;5.82;;;2.92;;
7529;SDS011;3806;52.270;10.544;2022-07-01T15:05:36;3.38;;;2.30;;
7529;SDS011;3806;52.270;10.544;2022-07-01T15:08:02;3.63;;;2.33;;
7529;SDS011;3806;52.270;10.544;2022-07-01T15:10:27;3.47;;;2.80;;
7529;SDS011;3806;52.270;10.544;2022-07-01T15:12:53;6.60;;;2.45;;
7529;SDS011;3806;52.270;10.544;2022-07-01T15:15:19;5.18;;;2.63;;
7529;SDS011;3806;52.270;10.544;2022-07-01T15:17:45;6.10;;;2.78;;
7529;SDS011;3806;52.270;10.544;2022-07-01T15:20:12;3.42;;;2.38;;
7529;SDS011;3806;52.270;10.544;2022-07-01T15:22:39;3.70;;;2.38;;
7529;SDS011;3806;52.270;10.544;2022-07-01T15:25:05;5.45;;;2.90;;
7529;SDS011;3806;52.270;10.544;2022-07-01T15:27:31;2.80;;;2.00;;
7529;SDS011;3806;52.270;10.544;2022-07-01T15:29:57;5.47;;;2.85;;
7529;SDS011;3806;52.270;10.544;2022-07-01T15:32:23;6.30;;;2.67;;
7529;SDS011;3806;52.270;10.544;2022-07-01T15:34:48;5.68;;;2.45;;
7529;SDS011;3806;52.270;10.544;2022-07-01T15:37:14;5.25;;;2.63;;
7529;SDS011;3806;52.270;10.544;2022-07-01T15:39:40;5.43;;;3.00;;
7529;SDS011;3806;52.270;10.544;2022-07-01T15:42:06;3.30;;;2.55;;
7529;SDS011;3806;52.270;10.544;2022-07-01T15:44:32;3.47;;;2.35;;
7529;SDS011;3806;52.270;10.544;2022-07-01T15:46:58;4.00;;;2.80;;
7529;SDS011;3806;52.270;10.544;2022-07-01T15:54:35;3.55;;;2.33;;
7529;SDS011;3806;52.270;10.544;2022-07-01T15:57:00;3.10;;;2.20;;